sensor_id;sensor_type;location;lat;lon;timestamp;P1;durP1;ratioP1;P2;durP2;ratioP2
57985;SDS011;43788;42.670;23.330;2023-04-03T00:04:44;0.90;;;0.40;;
57985;SDS011;43788;42.670;23.330;2023-04-03T00:10:03;1.48;;;0.50;;
57985;SDS011;43788;42.670;23.330;2023-04-03T00:15:24;0.40;;;0.30;;
57985;SDS011;43788;42.670;23.330;2023-04-03T00:20:44;0.17;;;0.17;;
57985;SDS011;43788;42.670;23.330;2023-04-03T00:23:10;0.50;;;0.50;;
57985;SDS011;43788;42.670;23.330;2023-04-03T00:25:37;0.85;;;0.35;;
57985;SDS011;43788;42.670;23.330;2023-04-03T00:28:03;0.30;;;0.30;;
57985;SDS011;43788;42.670;23.330;2023-04-03T00:33:21;0.30;;;0.30;;
57985;SDS011;43788;42.670;23.330;2023-04-03T00:38:40;0.30;;;0.30;;
57985;SDS011;43788;42.670;23.330;2023-04-03T00:41:06;0.40;;;0.40;;
57985;SDS011;43788;42.670;23.330;2023-04-03T00:43:32;0.40;;;0.40;;
57985;SDS011;43788;42.670;23.330;2023-04-03T00:45:58;0.30;;;0.30;;
57985;SDS011;43788;42.670;23.330;2023-04-03T00:51:09;0.65;;;0.57;;
57985;SDS011;43788;42.670;23.330;2023-04-03T00:53:39;0.38;;;0.30;;
57985;SDS011;43788;42.670;23.330;2023-04-03T01:01:27;0.32;;;0.28;;
57985;SDS011;43788;42.670;23.330;2023-04-03T01:03:54;0.60;;;0.50;;
57985;SDS011;43788;42.670;23.330;2023-04-03T01:06:27;0.50;;;0.50;;
57985;SDS011;43788;42.670;23.330;2023-04-03T01:08:56;0.45;;;0.45;;
57985;SDS011;43788;42.670;23.330;2023-04-03T01:11:24;1.20;;;0.50;;
57985;SDS011;43788;42.670;23.330;2023-04-03T01:13:51;0.45;;;0.40;;
57985;SDS011;43788;42.670;23.330;2023-04-03T01:16:18;0.30;;;0.30;;
57985;SDS011;43788;42.670;23.330;2023-04-03T01:18:44;0.98;;;0.50;;
57985;SDS011;43788;42.670;23.330;2023-04-03T01:24:11;0.52;;;0.52;;
57985;SDS011;43788;42.670;23.330;2023-04-03T01:26:38;0.52;;;0.52;;
57985;SDS011;43788;42.670;23.330;2023-04-03T01:29:04;0.40;;;0.40;;
57985;SDS011;43788;42.670;23.330;2023-04-03T01:34:04;0.35;;;0.30;;
57985;SDS011;43788;42.670;23.330;2023-04-03T01:36:31;2.92;;;0.60;;
57985;SDS011;43788;42.670;23.330;2023-04-03T01:38:58;0.30;;;0.30;;
57985;SDS011;43788;42.670;23.330;2023-04-03T01:41:25;0.20;;;0.20;;
57985;SDS011;43788;42.670;23.330;2023-04-03T01:43:53;0.95;;;0.40;;
57985;SDS011;43788;42.670;23.330;2023-04-03T01:46:18;0.40;;;0.30;;
57985;SDS011;43788;42.670;23.330;2023-04-03T01:48:45;0.22;;;0.10;;
57985;SDS011;43788;42.670;23.330;2023-04-03T01:51:12;0.20;;;0.20;;
57985;SDS011;43788;42.670;23.330;2023-04-03T01:53:37;0.10;;;0.10;;
57985;SDS011;43788;42.670;23.330;2023-04-03T01:56:04;0.22;;;0.15;;
57985;SDS011;43788;42.670;23.330;2023-04-03T01:58:31;0.20;;;0.20;;
57985;SDS011;43788;42.670;23.330;2023-04-03T02:00:57;0.30;;;0.30;;
57985;SDS011;43788;42.670;23.330;2023-04-03T02:03:24;0.13;;;0.13;;
57985;SDS011;43788;42.670;23.330;2023-04-03T02:05:51;0.17;;;0.17;;
57985;SDS011;43788;42.670;23.330;2023-04-03T02:08:16;0.17;;;0.17;;
57985;SDS011;43788;42.670;23.330;2023-04-03T02:10:48;0.10;;;0.10;;
57985;SDS011;43788;42.670;23.330;2023-04-03T02:13:15;0.30;;;0.30;;
57985;SDS011;43788;42.670;23.330;2023-04-03T02:15:42;0.30;;;0.30;;
57985;SDS011;43788;42.670;23.330;2023-04-03T02:18:07;0.35;;;0.32;;
57985;SDS011;43788;42.670;23.330;2023-04-03T02:20:33;0.10;;;0.10;;
57985;SDS011;43788;42.670;23.330;2023-04-03T02:22:59;0.57;;;0.57;;
57985;SDS011;43788;42.670;23.330;2023-04-03T02:25:25;0.30;;;0.30;;
57985;SDS011;43788;42.670;23.330;2023-04-03T02:27:52;0.55;;;0.30;;
57985;SDS011;43788;42.670;23.330;2023-04-03T02:30:17;0.22;;;0.20;;
57985;SDS011;43788;42.670;23.330;2023-04-03T02:32:44;0.40;;;0.40;;
57985;SDS011;43788;42.670;23.330;2023-04-03T02:35:10;0.77;;;0.35;;
57985;SDS011;43788;42.670;23.330;2023-04-03T02:37:37;1.08;;;0.30;;
57985;SDS011;43788;42.670;23.330;2023-04-03T02:40:03;0.35;;;0.35;;
57985;SDS011;43788;42.670;23.330;2023-04-03T02:42:29;0.30;;;0.30;;
57985;SDS011;43788;42.670;23.330;2023-04-03T02:44:54;0.35;;;0.30;;
57985;SDS011;43788;42.670;23.330;2023-04-03T02:47:20;0.40;;;0.40;;
57985;SDS011;43788;42.670;23.330;2023-04-03T02:49:46;0.90;;;0.30;;
57985;SDS011;43788;42.670;23.330;2023-04-03T02:52:15;0.22;;;0.22;;
57985;SDS011;43788;42.670;23.330;2023-04-03T02:54:41;0.28;;;0.25;;
57985;SDS011;43788;42.670;23.330;2023-04-03T02:57:06;0.47;;;0.47;;
57985;SDS011;43788;42.670;23.330;2023-04-03T02:59:34;0.30;;;0.30;;
57985;SDS011;43788;42.670;23.330;2023-04-03T03:02:01;1.27;;;0.82;;
57985;SDS011;43788;42.670;23.330;2023-04-03T03:04:27;0.47;;;0.40;;
57985;SDS011;43788;42.670;23.330;2023-04-03T03:06:52;0.40;;;0.40;;
57985;SDS011;43788;42.670;23.330;2023-04-03T03:09:18;0.40;;;0.40;;
57985;SDS011;43788;42.670;23.330;2023-04-03T03:11:43;0.30;;;0.30;;
57985;SDS011;43788;42.670;23.330;2023-04-03T03:14:09;1.42;;;0.70;;
57985;SDS011;43788;42.670;23.330;2023-04-03T03:16:35;0.52;;;0.52;;
57985;SDS011;43788;42.670;23.330;2023-04-03T03:19:00;0.80;;;0.77;;
57985;SDS011;43788;42.670;23.330;2023-04-03T03:21:26;0.55;;;0.28;;
57985;SDS011;43788;42.670;23.330;2023-04-03T03:23:52;0.65;;;0.50;;
57985;SDS011;43788;42.670;23.330;2023-04-03T03:26:18;0.90;;;0.60;;
57985;SDS011;43788;42.670;23.330;2023-04-03T03:28:43;0.63;;;0.63;;
57985;SDS011;43788;42.670;23.330;2023-04-03T03:31:09;0.40;;;0.40;;
57985;SDS011;43788;42.670;23.330;2023-04-03T03:33:35;0.70;;;0.70;;
57985;SDS011;43788;42.670;23.330;2023-04-03T03:36:00;0.40;;;0.40;;
57985;SDS011;43788;42.670;23.330;2023-04-03T03:38:26;0.40;;;0.40;;
57985;SDS011;43788;42.670;23.330;2023-04-03T03:40:51;0.75;;;0.47;;
57985;SDS011;43788;42.670;23.330;2023-04-03T03:43:17;0.25;;;0.25;;
57985;SDS011;43788;42.670;23.330;2023-04-03T03:45:43;0.30;;;0.30;;
57985;SDS011;43788;42.670;23.330;2023-04-03T03:48:10;0.80;;;0.75;;
57985;SDS011;43788;42.670;23.330;2023-04-03T03:50:36;0.52;;;0.43;;
57985;SDS011;43788;42.670;23.330;2023-04-03T03:53:01;0.43;;;0.38;;
57985;SDS011;43788;42.670;23.330;2023-04-03T03:55:27;0.68;;;0.60;;
57985;SDS011;43788;42.670;23.330;2023-04-03T03:57:53;0.45;;;0.43;;
57985;SDS011;43788;42.670;23.330;2023-04-03T04:00:18;0.60;;;0.60;;
57985;SDS011;43788;42.670;23.330;2023-04-03T04:02:44;0.50;;;0.50;;
57985;SDS011;43788;42.670;23.330;2023-04-03T04:05:10;1.35;;;0.60;;
57985;SDS011;43788;42.670;23.330;2023-04-03T04:07:36;0.50;;;0.50;;
57985;SDS011;43788;42.670;23.330;2023-04-03T04:10:05;0.85;;;0.63;;
57985;SDS011;43788;42.670;23.330;2023-04-03T04:15:20;0.60;;;0.60;;
57985;SDS011;43788;42.670;23.330;2023-04-03T04:17:46;0.68;;;0.68;;
57985;SDS011;43788;42.670;23.330;2023-04-03T04:20:12;0.82;;;0.60;;
57985;SDS011;43788;42.670;23.330;2023-04-03T04:22:38;0.73;;;0.70;;
57985;SDS011;43788;42.670;23.330;2023-04-03T04:25:04;1.10;;;0.60;;
57985;SDS011;43788;42.670;23.330;2023-04-03T04:27:30;6.45;;;1.10;;
57985;SDS011;43788;42.670;23.330;2023-04-03T04:29:55;0.55;;;0.40;;
57985;SDS011;43788;42.670;23.330;2023-04-03T04:32:20;0.47;;;0.40;;
57985;SDS011;43788;42.670;23.330;2023-04-03T04:34:46;0.57;;;0.47;;
57985;SDS011;43788;42.670;23.330;2023-04-03T04:37:13;0.65;;;0.50;;
57985;SDS011;43788;42.670;23.330;2023-04-03T04:39:39;0.63;;;0.43;;
57985;SDS011;43788;42.670;23.330;2023-04-03T04:42:05;0.30;;;0.30;;
57985;SDS011;43788;42.670;23.330;2023-04-03T04:44:32;0.40;;;0.40;;
57985;SDS011;43788;42.670;23.330;2023-04-03T04:46:57;0.40;;;0.40;;
57985;SDS011;43788;42.670;23.330;2023-04-03T04:49:23;1.25;;;0.68;;
57985;SDS011;43788;42.670;23.330;2023-04-03T04:51:49;0.70;;;0.70;;
57985;SDS011;43788;42.670;23.330;2023-04-03T04:54:15;3.22;;;0.75;;
57985;SDS011;43788;42.670;23.330;2023-04-03T04:56:40;0.60;;;0.60;;
57985;SDS011;43788;42.670;23.330;2023-04-03T04:59:06;1.02;;;0.60;;
57985;SDS011;43788;42.670;23.330;2023-04-03T05:01:32;1.88;;;0.88;;
57985;SDS011;43788;42.670;23.330;2023-04-03T05:03:58;1.08;;;0.70;;
57985;SDS011;43788;42.670;23.330;2023-04-03T05:06:24;1.15;;;0.75;;
57985;SDS011;43788;42.670;23.330;2023-04-03T05:08:49;0.50;;;0.50;;
57985;SDS011;43788;42.670;23.330;2023-04-03T05:11:15;1.38;;;0.63;;
57985;SDS011;43788;42.670;23.330;2023-04-03T05:13:42;0.90;;;0.60;;
57985;SDS011;43788;42.670;23.330;2023-04-03T05:16:07;1.40;;;0.77;;
57985;SDS011;43788;42.670;23.330;2023-04-03T05:18:33;0.75;;;0.73;;
57985;SDS011;43788;42.670;23.330;2023-04-03T05:20:58;2.53;;;0.77;;
57985;SDS011;43788;42.670;23.330;2023-04-03T05:23:23;0.80;;;0.70;;
57985;SDS011;43788;42.670;23.330;2023-04-03T05:28:39;4.80;;;0.90;;
57985;SDS011;43788;42.670;23.330;2023-04-03T05:34:01;0.50;;;0.50;;
57985;SDS011;43788;42.670;23.330;2023-04-03T05:39:17;0.52;;;0.52;;
57985;SDS011;43788;42.670;23.330;2023-04-03T05:41:42;1.52;;;0.95;;
57985;SDS011;43788;42.670;23.330;2023-04-03T05:44:07;1.20;;;0.70;;
57985;SDS011;43788;42.670;23.330;2023-04-03T05:46:33;1.15;;;0.93;;
57985;SDS011;43788;42.670;23.330;2023-04-03T05:48:59;0.85;;;0.85;;
57985;SDS011;43788;42.670;23.330;2023-04-03T05:51:25;0.90;;;0.90;;
57985;SDS011;43788;42.670;23.330;2023-04-03T05:54:11;1.10;;;0.90;;
57985;SDS011;43788;42.670;23.330;2023-04-03T05:56:40;0.73;;;0.70;;
57985;SDS011;43788;42.670;23.330;2023-04-03T05:59:05;0.73;;;0.73;;
57985;SDS011;43788;42.670;23.330;2023-04-03T06:01:34;0.60;;;0.60;;
57985;SDS011;43788;42.670;23.330;2023-04-03T06:03:59;1.52;;;1.20;;
57985;SDS011;43788;42.670;23.330;2023-04-03T06:06:42;1.73;;;1.33;;
57985;SDS011;43788;42.670;23.330;2023-04-03T06:09:11;0.95;;;0.82;;
57985;SDS011;43788;42.670;23.330;2023-04-03T06:11:37;1.83;;;1.20;;
57985;SDS011;43788;42.670;23.330;2023-04-03T06:14:03;1.20;;;1.10;;
57985;SDS011;43788;42.670;23.330;2023-04-03T06:16:29;1.08;;;0.98;;
57985;SDS011;43788;42.670;23.330;2023-04-03T06:18:54;1.95;;;1.23;;
57985;SDS011;43788;42.670;23.330;2023-04-03T06:21:21;1.77;;;1.50;;
57985;SDS011;43788;42.670;23.330;2023-04-03T06:26:30;1.70;;;1.20;;
57985;SDS011;43788;42.670;23.330;2023-04-03T06:28:57;2.05;;;1.33;;
57985;SDS011;43788;42.670;23.330;2023-04-03T06:31:23;1.73;;;1.10;;
57985;SDS011;43788;42.670;23.330;2023-04-03T06:33:48;0.88;;;0.88;;
57985;SDS011;43788;42.670;23.330;2023-04-03T06:36:14;1.15;;;1.00;;
57985;SDS011;43788;42.670;23.330;2023-04-03T06:38:45;2.65;;;1.40;;
57985;SDS011;43788;42.670;23.330;2023-04-03T06:41:11;1.20;;;0.98;;
57985;SDS011;43788;42.670;23.330;2023-04-03T06:43:37;1.30;;;1.17;;
57985;SDS011;43788;42.670;23.330;2023-04-03T06:46:02;3.22;;;1.48;;
57985;SDS011;43788;42.670;23.330;2023-04-03T06:48:28;2.10;;;1.13;;
57985;SDS011;43788;42.670;23.330;2023-04-03T06:50:54;1.88;;;1.15;;
57985;SDS011;43788;42.670;23.330;2023-04-03T06:56:13;1.77;;;1.40;;
57985;SDS011;43788;42.670;23.330;2023-04-03T06:58:39;3.35;;;1.40;;
57985;SDS011;43788;42.670;23.330;2023-04-03T07:01:05;1.50;;;1.05;;
57985;SDS011;43788;42.670;23.330;2023-04-03T07:03:31;1.95;;;1.70;;
57985;SDS011;43788;42.670;23.330;2023-04-03T07:05:56;3.00;;;1.52;;
57985;SDS011;43788;42.670;23.330;2023-04-03T07:08:23;1.20;;;1.10;;
57985;SDS011;43788;42.670;23.330;2023-04-03T07:10:51;2.65;;;0.95;;
57985;SDS011;43788;42.670;23.330;2023-04-03T07:13:16;0.82;;;0.82;;
57985;SDS011;43788;42.670;23.330;2023-04-03T07:15:42;1.35;;;1.15;;
57985;SDS011;43788;42.670;23.330;2023-04-03T07:18:07;1.10;;;1.00;;
57985;SDS011;43788;42.670;23.330;2023-04-03T07:20:34;1.55;;;0.82;;
57985;SDS011;43788;42.670;23.330;2023-04-03T07:22:59;0.55;;;0.47;;
57985;SDS011;43788;42.670;23.330;2023-04-03T07:25:28;1.83;;;0.50;;
57985;SDS011;43788;42.670;23.330;2023-04-03T07:27:55;0.30;;;0.30;;
57985;SDS011;43788;42.670;23.330;2023-04-03T07:30:21;0.57;;;0.57;;
57985;SDS011;43788;42.670;23.330;2023-04-03T07:32:47;0.57;;;0.57;;
57985;SDS011;43788;42.670;23.330;2023-04-03T07:35:12;0.40;;;0.40;;
57985;SDS011;43788;42.670;23.330;2023-04-03T07:37:38;0.38;;;0.38;;
57985;SDS011;43788;42.670;23.330;2023-04-03T07:40:04;0.68;;;0.47;;
57985;SDS011;43788;42.670;23.330;2023-04-03T07:42:31;0.40;;;0.40;;
57985;SDS011;43788;42.670;23.330;2023-04-03T07:44:57;0.75;;;0.50;;
57985;SDS011;43788;42.670;23.330;2023-04-03T07:47:22;1.20;;;0.70;;
57985;SDS011;43788;42.670;23.330;2023-04-03T07:49:49;0.70;;;0.43;;
57985;SDS011;43788;42.670;23.330;2023-04-03T07:52:15;1.02;;;0.75;;
57985;SDS011;43788;42.670;23.330;2023-04-03T07:54:40;2.22;;;0.90;;
57985;SDS011;43788;42.670;23.330;2023-04-03T07:57:06;1.23;;;0.73;;
57985;SDS011;43788;42.670;23.330;2023-04-03T07:59:32;0.90;;;0.80;;
57985;SDS011;43788;42.670;23.330;2023-04-03T08:01:57;2.75;;;0.70;;
57985;SDS011;43788;42.670;23.330;2023-04-03T08:04:24;0.77;;;0.68;;
57985;SDS011;43788;42.670;23.330;2023-04-03T08:06:51;2.35;;;1.25;;
57985;SDS011;43788;42.670;23.330;2023-04-03T08:09:16;1.35;;;1.25;;
57985;SDS011;43788;42.670;23.330;2023-04-03T08:11:42;1.83;;;1.50;;
57985;SDS011;43788;42.670;23.330;2023-04-03T08:14:08;2.25;;;1.08;;
57985;SDS011;43788;42.670;23.330;2023-04-03T08:16:35;1.92;;;1.20;;
57985;SDS011;43788;42.670;23.330;2023-04-03T08:21:30;1.02;;;1.00;;
57985;SDS011;43788;42.670;23.330;2023-04-03T08:23:59;2.38;;;1.38;;
57985;SDS011;43788;42.670;23.330;2023-04-03T08:26:31;2.50;;;1.77;;
